createdAt,value
2022-12-31T12:03:31.802Z,67.52
2022-12-31T12:04:31.699Z,66.14
2022-12-31T12:06:35.678Z,64.59
2022-12-31T12:07:35.678Z,64.21
2022-12-31T12:09:39.626Z,64.66
2022-12-31T12:10:39.589Z,64.66
2022-12-31T12:12:43.544Z,65.05
2022-12-31T12:13:43.526Z,65.72
2022-12-31T12:15:53.707Z,65.81
2022-12-31T12:16:53.121Z,66.10
2022-12-31T12:17:51.233Z,65.53
2022-12-31T12:18:51.030Z,65.43
2022-12-31T12:19:51.011Z,65.53
2022-12-31T12:20:53.409Z,65.33
2022-12-31T12:21:53.285Z,65.17
2022-12-31T12:22:50.789Z,64.98
2022-12-31T12:23:50.738Z,64.40
2022-12-31T12:24:50.728Z,63.85
2022-12-31T12:25:50.766Z,63.28
2022-12-31T12:26:50.707Z,63.38
2022-12-31T12:27:50.706Z,63.28
2022-12-31T12:28:50.686Z,63.15
2022-12-31T12:29:50.676Z,63.82
2022-12-31T12:30:50.667Z,64.12
2022-12-31T12:31:50.675Z,63.73
2022-12-31T12:32:50.646Z,64.12
2022-12-31T12:33:50.631Z,64.18
2022-12-31T12:34:50.619Z,64.18
2022-12-31T12:35:50.613Z,64.66
2022-12-31T12:36:50.601Z,64.86
2022-12-31T12:37:50.594Z,64.59
2022-12-31T12:38:50.581Z,63.57
2022-12-31T12:39:50.568Z,63.41
2022-12-31T12:40:50.561Z,62.73
2022-12-31T12:41:50.550Z,62.45
2022-12-31T12:42:50.584Z,62.45
2022-12-31T12:43:50.529Z,62.90
2022-12-31T12:44:50.526Z,62.90
2022-12-31T12:45:52.430Z,63.44
2022-12-31T12:46:50.554Z,63.34
2022-12-31T12:47:50.488Z,63.64
2022-12-31T12:48:50.499Z,63.82
2022-12-31T12:49:50.494Z,64.18
2022-12-31T12:50:50.468Z,64.21
2022-12-31T12:51:50.457Z,64.59
2022-12-31T12:52:53.851Z,64.08
2022-12-31T12:53:50.440Z,64.28
2022-12-31T12:54:50.418Z,63.89
2022-12-31T12:55:50.415Z,64.08
2022-12-31T12:56:50.391Z,64.25
2022-12-31T12:57:50.388Z,63.95
2022-12-31T12:58:50.375Z,64.53
2022-12-31T12:59:50.370Z,64.50
2022-12-31T13:00:50.398Z,64.79
2022-12-31T13:01:50.490Z,65.08
2022-12-31T13:02:50.420Z,65.27
2022-12-31T13:04:31.898Z,65.23
2022-12-31T13:04:50.317Z,65.43
2022-12-31T13:05:50.296Z,65.33
2022-12-31T13:06:50.295Z,66.00
2022-12-31T13:07:50.351Z,65.91
2022-12-31T13:08:50.310Z,65.91
2022-12-31T13:09:50.261Z,65.91
2022-12-31T13:10:50.329Z,65.81
2022-12-31T13:11:50.294Z,66.00
2022-12-31T13:13:22.795Z,66.00
2022-12-31T13:13:50.216Z,66.00
2022-12-31T13:14:50.238Z,65.62
2022-12-31T13:17:27.713Z,66.10
2022-12-31T13:18:25.682Z,66.20
2022-12-31T13:19:27.186Z,66.10
2022-12-31T13:20:25.604Z,66.39
2022-12-31T13:21:25.579Z,65.94
2022-12-31T13:22:25.597Z,65.69
2022-12-31T13:23:27.705Z,64.63
2022-12-31T13:24:25.510Z,63.99
2022-12-31T13:25:25.476Z,63.31
2022-12-31T13:26:25.465Z,63.12
2022-12-31T13:27:25.459Z,63.76
2022-12-31T13:28:25.505Z,63.86
2022-12-31T13:29:25.456Z,64.43
2022-12-31T13:30:25.531Z,64.50
2022-12-31T13:31:25.454Z,64.79
2022-12-31T13:32:25.493Z,64.98
2022-12-31T13:33:25.403Z,65.27
2022-12-31T13:34:25.387Z,65.43
2022-12-31T13:35:25.366Z,65.72
2022-12-31T13:36:25.357Z,65.53
2022-12-31T13:37:25.428Z,65.43
2022-12-31T13:38:25.744Z,65.43
2022-12-31T13:39:25.399Z,65.43
2022-12-31T13:40:25.405Z,65.62
2022-12-31T13:41:25.303Z,65.81
2022-12-31T13:42:25.291Z,66.00
2022-12-31T13:43:25.277Z,66.26
2022-12-31T13:46:35.163Z,66.16
2022-12-31T13:47:34.960Z,65.97
2022-12-31T13:48:36.935Z,65.78
2022-12-31T13:49:35.923Z,66.16
2022-12-31T13:50:36.378Z,66.26
2022-12-31T13:51:34.884Z,66.74
2022-12-31T13:52:40.353Z,66.36
2022-12-31T13:53:58.379Z,66.42
2022-12-31T13:54:34.878Z,66.61
2022-12-31T13:55:34.913Z,67.00
2022-12-31T13:56:34.776Z,66.71
2022-12-31T13:57:34.770Z,67.19
2022-12-31T13:58:34.945Z,66.71
2022-12-31T13:59:34.776Z,67.29
2022-12-31T14:00:34.731Z,67.47
2022-12-31T14:01:34.948Z,67.57
2022-12-31T14:02:34.840Z,66.96
2022-12-31T14:03:34.790Z,67.25
2022-12-31T14:04:34.706Z,67.83
2022-12-31T14:05:34.734Z,67.44
2022-12-31T14:06:34.666Z,67.83
2022-12-31T14:07:37.740Z,67.73
2022-12-31T14:08:34.672Z,68.12
2022-12-31T14:09:34.625Z,68.08
2022-12-31T14:10:34.612Z,68.08
2022-12-31T14:11:34.602Z,67.89
2022-12-31T14:12:34.608Z,68.46
2022-12-31T14:13:35.116Z,68.66
2022-12-31T14:14:34.567Z,68.37
2022-12-31T14:15:34.556Z,68.75
2022-12-31T14:16:34.555Z,68.56
2022-12-31T14:17:34.529Z,68.18
2022-12-31T14:18:34.575Z,68.75
2022-12-31T14:19:39.395Z,68.66
2022-12-31T14:20:34.541Z,68.56
2022-12-31T14:21:34.486Z,68.46
2022-12-31T14:22:34.473Z,68.56
2022-12-31T14:23:34.468Z,68.46
2022-12-31T14:24:34.458Z,68.56
2022-12-31T14:25:34.476Z,68.56
2022-12-31T14:26:34.423Z,68.46
2022-12-31T14:27:34.414Z,68.43
2022-12-31T14:28:34.400Z,68.05
2022-12-31T14:29:34.388Z,68.33
2022-12-31T14:30:34.372Z,68.24
2022-12-31T14:31:34.421Z,68.52
2022-12-31T14:32:34.367Z,68.52
2022-12-31T14:33:34.342Z,68.72
2022-12-31T14:34:34.331Z,69.20
2022-12-31T14:35:34.318Z,69.48
2022-12-31T14:36:34.309Z,69.29
2022-12-31T14:37:34.300Z,69.29
2022-12-31T14:38:34.407Z,69.39
2022-12-31T14:39:34.288Z,69.20
2022-12-31T14:40:34.287Z,69.10
2022-12-31T14:41:34.238Z,69.39
2022-12-31T14:42:34.226Z,69.20
2022-12-31T14:43:34.210Z,69.20
2022-12-31T14:44:34.201Z,69.20
2022-12-31T14:45:34.227Z,68.91
2022-12-31T14:46:34.173Z,69.20
2022-12-31T14:47:34.156Z,69.01
2022-12-31T14:48:34.152Z,69.20
2022-12-31T14:49:34.129Z,69.20
2022-12-31T14:50:34.147Z,69.20
2022-12-31T14:51:34.102Z,69.68
2022-12-31T14:52:34.090Z,69.68
2022-12-31T14:53:34.089Z,69.39
2022-12-31T14:54:34.069Z,69.29
2022-12-31T14:55:34.068Z,69.35
2022-12-31T14:56:34.075Z,69.83
2022-12-31T14:57:47.486Z,69.87
2022-12-31T14:58:34.014Z,69.64
2022-12-31T14:59:40.129Z,69.83
2022-12-31T15:00:33.990Z,69.45
2022-12-31T15:01:34.048Z,70.03
2022-12-31T15:02:35.994Z,69.83
2022-12-31T15:03:33.955Z,70.12
2022-12-31T15:04:33.943Z,70.03
2022-12-31T15:05:33.980Z,70.12
2022-12-31T15:06:33.930Z,70.03
2022-12-31T15:07:33.906Z,70.03
2022-12-31T15:08:33.886Z,70.31
2022-12-31T15:09:33.872Z,69.93
2022-12-31T15:10:33.863Z,70.31
2022-12-31T15:11:33.867Z,70.50
2022-12-31T15:12:33.901Z,70.37
2022-12-31T15:13:33.919Z,70.47
2022-12-31T15:14:37.496Z,70.28
2022-12-31T15:15:33.896Z,70.47
2022-12-31T15:16:33.908Z,70.47
2022-12-31T15:17:33.780Z,70.95
2022-12-31T15:18:33.759Z,70.66
2022-12-31T15:19:33.746Z,70.76
2022-12-31T15:20:33.737Z,70.66
2022-12-31T15:21:33.724Z,70.47
2022-12-31T15:22:33.705Z,70.76
2022-12-31T15:23:33.692Z,70.95
2022-12-31T15:24:33.680Z,71.04
2022-12-31T15:25:40.058Z,70.95
2022-12-31T15:26:33.660Z,71.23
2022-12-31T15:27:33.648Z,71.04
2022-12-31T15:28:33.633Z,71.04
2022-12-31T15:29:33.627Z,70.85
2022-12-31T15:30:33.645Z,71.30
2022-12-31T15:31:33.650Z,71.42
2022-12-31T15:32:33.575Z,71.14
2022-12-31T15:33:33.560Z,71.14
2022-12-31T15:34:33.556Z,71.20
2022-12-31T15:35:33.559Z,71.01
2022-12-31T15:36:33.534Z,71.20
2022-12-31T15:37:33.515Z,71.39
2022-12-31T15:38:33.513Z,71.42
2022-12-31T15:39:33.488Z,71.68
2022-12-31T15:40:33.475Z,71.52
2022-12-31T15:41:33.463Z,71.04
2022-12-31T15:42:38.294Z,71.23
2022-12-31T15:43:33.434Z,70.85
2022-12-31T15:44:33.431Z,71.52
2022-12-31T15:45:33.441Z,71.33
2022-12-31T15:46:33.422Z,71.23
2022-12-31T15:47:33.409Z,71.04
2022-12-31T15:48:33.370Z,71.42
2022-12-31T15:49:33.348Z,71.42
2022-12-31T15:50:33.355Z,71.33
2022-12-31T15:51:33.339Z,71.42
2022-12-31T15:52:33.311Z,71.42
2022-12-31T15:53:33.307Z,71.33
2022-12-31T15:54:33.292Z,71.42
2022-12-31T15:55:33.311Z,71.52
2022-12-31T15:56:33.270Z,71.91
2022-12-31T15:57:33.278Z,71.62
2022-12-31T15:58:33.256Z,71.62
2022-12-31T15:59:33.221Z,71.52
2022-12-31T16:00:33.220Z,71.62
2022-12-31T16:01:33.322Z,71.42
2022-12-31T16:02:33.369Z,71.77
2022-12-31T16:03:33.201Z,71.87
2022-12-31T16:04:33.162Z,71.71
2022-12-31T16:05:33.137Z,72.06
2022-12-31T16:06:33.141Z,71.77
2022-12-31T16:07:33.120Z,71.77
2022-12-31T16:08:33.106Z,71.87
2022-12-31T16:09:33.095Z,71.58
2022-12-31T16:10:33.130Z,72.16
2022-12-31T16:11:33.063Z,72.06
2022-12-31T16:12:35.091Z,71.87
2022-12-31T16:13:33.948Z,71.77
2022-12-31T16:14:33.033Z,71.87
2022-12-31T16:15:33.117Z,71.87
2022-12-31T16:16:33.000Z,72.06
2022-12-31T16:17:32.994Z,71.87
2022-12-31T16:18:32.976Z,71.77
2022-12-31T16:19:32.978Z,71.77
2022-12-31T16:20:32.942Z,71.87
2022-12-31T16:21:32.998Z,71.87
2022-12-31T16:22:32.925Z,71.77
2022-12-31T16:23:36.225Z,71.77
2022-12-31T16:24:32.935Z,71.87
2022-12-31T16:25:33.717Z,71.77
2022-12-31T16:26:32.866Z,71.87
2022-12-31T16:27:32.848Z,71.68
2022-12-31T16:28:32.852Z,71.77
2022-12-31T16:29:32.824Z,71.68
2022-12-31T16:30:32.815Z,71.68
2022-12-31T16:31:32.843Z,71.87
2022-12-31T16:32:32.782Z,71.97
2022-12-31T16:33:32.768Z,71.97
2022-12-31T16:34:32.768Z,71.87
2022-12-31T16:35:32.740Z,71.58
2022-12-31T16:36:32.736Z,71.68
2022-12-31T16:37:32.712Z,71.97
2022-12-31T16:38:32.707Z,71.87
2022-12-31T16:39:32.686Z,71.87
2022-12-31T16:40:32.678Z,71.87
2022-12-31T16:41:32.664Z,71.68
2022-12-31T16:42:32.651Z,71.77
2022-12-31T16:43:32.640Z,71.97
2022-12-31T16:44:32.623Z,71.77
2022-12-31T16:45:32.613Z,71.87
2022-12-31T16:46:32.636Z,72.06
2022-12-31T16:47:32.653Z,71.77
2022-12-31T16:48:32.587Z,71.91
2022-12-31T16:49:32.614Z,71.71
2022-12-31T16:50:32.555Z,71.91
2022-12-31T16:51:32.554Z,71.91
2022-12-31T16:52:32.547Z,71.91
2022-12-31T16:53:32.504Z,71.81
2022-12-31T16:54:32.492Z,71.81
2022-12-31T16:55:32.473Z,71.91
2022-12-31T16:56:32.460Z,71.91
2022-12-31T16:57:32.452Z,71.97
2022-12-31T16:58:32.450Z,71.77
2022-12-31T16:59:35.351Z,71.87
2022-12-31T17:00:32.430Z,71.68
2022-12-31T17:01:32.526Z,71.77
2022-12-31T17:02:32.424Z,71.97
2022-12-31T17:03:32.391Z,71.77
2022-12-31T17:04:32.359Z,71.77
2022-12-31T17:05:32.349Z,71.87
2022-12-31T17:06:32.325Z,71.97
2022-12-31T17:07:32.434Z,71.58
2022-12-31T17:08:32.305Z,71.68
2022-12-31T17:09:32.316Z,71.77
2022-12-31T17:10:32.280Z,71.77
2022-12-31T17:11:33.241Z,71.68
2022-12-31T17:12:46.649Z,71.77
2022-12-31T17:13:32.241Z,71.68
2022-12-31T17:14:32.221Z,71.77
2022-12-31T17:15:32.209Z,71.87
2022-12-31T17:16:32.238Z,71.68
2022-12-31T17:17:32.175Z,71.87
2022-12-31T17:18:32.166Z,71.77
2022-12-31T17:19:32.150Z,71.87
2022-12-31T17:20:32.142Z,71.97
2022-12-31T17:21:32.140Z,72.09
2022-12-31T17:22:36.737Z,72.00
2022-12-31T17:23:32.113Z,72.19
2022-12-31T17:24:32.090Z,72.19
2022-12-31T17:25:32.068Z,71.91
2022-12-31T17:26:32.124Z,71.91
2022-12-31T17:27:32.045Z,71.87
2022-12-31T17:28:32.028Z,71.77
2022-12-31T17:29:32.037Z,71.87
2022-12-31T17:30:32.025Z,71.77
2022-12-31T17:31:32.048Z,71.87
2022-12-31T17:32:32.028Z,72.06
2022-12-31T17:33:31.966Z,72.06
2022-12-31T17:34:31.955Z,72.06
2022-12-31T17:35:31.946Z,71.58
2022-12-31T17:36:31.930Z,71.48
2022-12-31T17:37:32.068Z,71.97
2022-12-31T17:38:31.927Z,71.87
2022-12-31T17:39:31.901Z,72.06
2022-12-31T17:41:31.852Z,72.16
2022-12-31T17:42:31.843Z,72.06
2022-12-31T17:43:35.191Z,71.77
2022-12-31T17:44:31.815Z,71.68
2022-12-31T17:45:31.799Z,71.87
2022-12-31T17:46:31.801Z,71.68
2022-12-31T17:47:31.778Z,71.87
2022-12-31T17:48:31.764Z,71.48
2022-12-31T17:49:31.759Z,71.68
2022-12-31T17:50:31.737Z,71.68
2022-12-31T17:51:31.724Z,71.48
2022-12-31T17:52:31.712Z,71.48
2022-12-31T17:53:31.707Z,71.39
2022-12-31T17:54:31.685Z,71.48
2022-12-31T17:55:31.666Z,71.45
2022-12-31T17:56:31.653Z,71.30
2022-12-31T17:57:31.644Z,71.39
2022-12-31T17:58:31.639Z,71.39
2022-12-31T17:59:31.629Z,71.01
2022-12-31T18:00:31.631Z,70.81
2022-12-31T18:01:31.702Z,71.20
2022-12-31T18:02:31.674Z,70.91
2022-12-31T18:03:31.566Z,70.72
2022-12-31T18:04:31.549Z,70.72
2022-12-31T18:05:31.533Z,70.43
2022-12-31T18:06:31.524Z,70.72
2022-12-31T18:07:31.520Z,70.72
2022-12-31T18:08:31.497Z,70.34
2022-12-31T18:09:31.482Z,70.43
2022-12-31T18:10:31.475Z,70.34
2022-12-31T18:11:31.463Z,70.24
2022-12-31T18:12:31.445Z,69.76
2022-12-31T18:13:31.429Z,69.57
2022-12-31T18:14:31.415Z,69.70
2022-12-31T18:15:31.404Z,69.32
2022-12-31T18:16:31.424Z,69.32
2022-12-31T18:17:31.379Z,69.03
2022-12-31T18:18:31.374Z,69.32
2022-12-31T18:20:03.534Z,69.03
2022-12-31T18:20:31.330Z,69.03
2022-12-31T18:21:31.328Z,68.65
2022-12-31T18:22:31.307Z,68.65
2022-12-31T18:23:31.305Z,69.00
2022-12-31T18:24:31.309Z,69.29
2022-12-31T18:25:31.293Z,69.09
2022-12-31T18:26:31.255Z,69.19
2022-12-31T18:27:31.242Z,69.00
2022-12-31T18:28:31.226Z,69.00
2022-12-31T18:29:31.214Z,69.09
2022-12-31T18:30:31.218Z,69.09
2022-12-31T18:31:31.286Z,69.09
2022-12-31T18:32:31.179Z,69.19
2022-12-31T18:33:31.209Z,69.00
2022-12-31T18:34:31.145Z,69.19
2022-12-31T18:36:07.289Z,69.09
2022-12-31T18:36:31.125Z,69.00
2022-12-31T18:37:31.103Z,69.09
2022-12-31T18:38:31.093Z,69.09
2022-12-31T18:39:31.088Z,69.09
2022-12-31T18:40:31.071Z,69.09
2022-12-31T18:41:31.061Z,69.19
2022-12-31T18:42:31.044Z,69.19
2022-12-31T18:43:31.021Z,69.19
2022-12-31T18:44:31.023Z,69.19
2022-12-31T18:45:31.041Z,68.90
2022-12-31T18:46:30.990Z,69.19
2022-12-31T18:47:37.357Z,69.19
2022-12-31T18:48:30.961Z,69.67
2022-12-31T18:49:30.946Z,69.09
2022-12-31T18:50:30.939Z,69.19
2022-12-31T18:51:32.371Z,69.67
2022-12-31T18:52:30.937Z,69.67
2022-12-31T18:53:30.896Z,69.38
2022-12-31T18:54:30.884Z,69.67
2022-12-31T18:55:30.876Z,69.29
2022-12-31T18:56:30.863Z,69.29
2022-12-31T18:57:30.838Z,69.29
2022-12-31T18:58:30.822Z,69.29
2022-12-31T18:59:30.818Z,69.29
2022-12-31T19:00:30.796Z,69.29
2022-12-31T19:01:30.914Z,69.19
2022-12-31T19:02:30.769Z,69.38
2022-12-31T19:03:30.863Z,69.19
2022-12-31T19:04:30.741Z,69.95
2022-12-31T19:05:30.735Z,69.67
2022-12-31T19:06:30.720Z,69.76
2022-12-31T19:07:30.712Z,69.19
2022-12-31T19:08:30.692Z,69.29
2022-12-31T19:09:45.304Z,69.48
2022-12-31T19:10:30.663Z,69.29
2022-12-31T19:11:30.652Z,69.67
2022-12-31T19:12:30.639Z,69.57
2022-12-31T19:13:30.636Z,69.67
2022-12-31T19:14:30.615Z,69.57
2022-12-31T19:15:30.597Z,69.48
2022-12-31T19:16:30.643Z,69.38
2022-12-31T19:17:30.574Z,69.48
2022-12-31T19:18:30.583Z,69.19
2022-12-31T19:19:30.547Z,68.90
2022-12-31T19:20:30.585Z,68.94
2022-12-31T19:21:30.514Z,69.23
2022-12-31T19:22:30.501Z,69.42
2022-12-31T19:23:30.530Z,69.51
2022-12-31T19:24:30.472Z,68.42
2022-12-31T19:25:30.460Z,68.65
2022-12-31T19:26:30.454Z,68.65
2022-12-31T19:27:30.438Z,68.74
2022-12-31T19:28:30.430Z,68.07
2022-12-31T19:29:30.405Z,68.36
2022-12-31T19:30:30.408Z,68.36
2022-12-31T19:31:30.422Z,68.13
2022-12-31T19:32:30.372Z,68.17
2022-12-31T19:33:30.363Z,68.33
2022-12-31T19:34:30.352Z,68.42
2022-12-31T19:35:30.331Z,68.33
2022-12-31T19:36:30.315Z,68.23
2022-12-31T19:37:30.293Z,68.17
2022-12-31T19:38:30.284Z,68.17
2022-12-31T19:39:30.278Z,68.33
2022-12-31T19:40:30.257Z,68.33
2022-12-31T19:41:30.245Z,68.62
2022-12-31T19:42:30.455Z,68.42
2022-12-31T19:43:30.225Z,68.62
2022-12-31T19:44:30.210Z,68.23
2022-12-31T19:45:30.366Z,68.33
2022-12-31T19:46:30.227Z,68.04
2022-12-31T19:47:30.233Z,68.04
2022-12-31T19:48:32.874Z,68.42
2022-12-31T19:49:30.796Z,68.33
2022-12-31T19:50:30.816Z,68.62
2022-12-31T19:51:30.799Z,68.23
2022-12-31T19:52:30.145Z,68.33
2022-12-31T19:53:30.120Z,68.04
2022-12-31T19:54:30.077Z,67.85
2022-12-31T19:55:30.072Z,67.66
2022-12-31T19:56:30.049Z,67.76
2022-12-31T19:57:30.039Z,67.66
2022-12-31T19:58:30.025Z,68.23
2022-12-31T19:59:30.003Z,68.42
2022-12-31T20:00:29.988Z,68.42
2022-12-31T20:01:30.186Z,68.52
2022-12-31T20:02:30.150Z,68.52
2022-12-31T20:03:30.040Z,68.52
2022-12-31T20:04:29.943Z,68.52
2022-12-31T20:05:29.931Z,68.42
2022-12-31T20:06:29.917Z,68.52
2022-12-31T20:07:29.908Z,68.52
2022-12-31T20:08:29.891Z,68.33
2022-12-31T20:09:29.934Z,68.33
2022-12-31T20:10:29.860Z,68.33
2022-12-31T20:11:29.861Z,68.33
2022-12-31T20:12:29.828Z,68.42
2022-12-31T20:13:29.820Z,68.23
2022-12-31T20:14:29.796Z,68.33
2022-12-31T20:15:29.845Z,68.23
2022-12-31T20:16:29.853Z,68.23
2022-12-31T20:17:29.761Z,68.04
2022-12-31T20:18:29.739Z,68.04
2022-12-31T20:19:29.748Z,68.42
2022-12-31T20:20:29.714Z,68.80
2022-12-31T20:21:29.723Z,68.13
2022-12-31T20:22:29.699Z,68.42
2022-12-31T20:23:29.686Z,68.62
2022-12-31T20:24:29.663Z,68.58
2022-12-31T20:25:29.660Z,68.29
2022-12-31T20:26:29.637Z,68.58
2022-12-31T20:27:29.627Z,68.33
2022-12-31T20:28:29.610Z,68.39
2022-12-31T20:29:29.601Z,68.33
2022-12-31T20:30:29.601Z,68.62
2022-12-31T20:31:29.587Z,68.33
2022-12-31T20:32:29.556Z,68.29
2022-12-31T20:33:29.542Z,68.39
2022-12-31T20:34:29.544Z,68.42
2022-12-31T20:35:29.515Z,68.58
2022-12-31T20:36:29.507Z,68.29
2022-12-31T20:37:29.486Z,68.20
2022-12-31T20:38:29.489Z,68.20
2022-12-31T20:39:29.460Z,68.20
2022-12-31T20:40:29.439Z,68.29
2022-12-31T20:41:29.423Z,68.29
2022-12-31T20:42:29.411Z,68.20
2022-12-31T20:43:29.407Z,68.29
2022-12-31T20:44:29.407Z,68.20
2022-12-31T20:45:29.377Z,68.20
2022-12-31T20:46:29.395Z,68.39
2022-12-31T20:47:29.399Z,68.58
2022-12-31T20:48:29.331Z,68.58
2022-12-31T20:50:00.903Z,68.10
2022-12-31T20:50:29.306Z,68.20
2022-12-31T20:51:29.292Z,68.39
2022-12-31T20:52:29.275Z,68.39
2022-12-31T20:53:29.822Z,68.49
2022-12-31T20:54:29.828Z,68.49
2022-12-31T20:55:29.238Z,68.29
2022-12-31T20:56:29.230Z,68.20
2022-12-31T20:57:33.560Z,68.20
2022-12-31T20:58:29.194Z,68.10
2022-12-31T20:59:29.837Z,68.10
2022-12-31T21:00:29.825Z,68.29
2022-12-31T21:01:41.860Z,68.10
2022-12-31T21:02:40.984Z,68.29
2022-12-31T21:04:29.270Z,68.29
2022-12-31T21:05:29.453Z,68.10
2022-12-31T21:06:29.108Z,68.01
2022-12-31T21:07:29.076Z,68.29
2022-12-31T21:08:34.614Z,68.29
2022-12-31T21:09:29.046Z,68.29
2022-12-31T21:10:29.037Z,68.58
2022-12-31T21:11:29.022Z,68.49
2022-12-31T21:12:29.016Z,68.39
2022-12-31T21:13:28.993Z,68.39
2022-12-31T21:14:28.976Z,68.29
2022-12-31T21:15:29.073Z,68.39
2022-12-31T21:16:28.950Z,68.39
2022-12-31T21:17:28.948Z,68.39
2022-12-31T21:18:28.924Z,68.39
2022-12-31T21:19:28.914Z,68.39
2022-12-31T21:20:28.906Z,68.49
2022-12-31T21:21:28.896Z,68.49
2022-12-31T21:22:28.903Z,68.58
2022-12-31T21:23:28.852Z,68.58
2022-12-31T21:24:28.839Z,68.39
2022-12-31T21:25:28.830Z,68.39
2022-12-31T21:26:28.818Z,68.39
2022-12-31T21:27:28.799Z,68.42
2022-12-31T21:28:28.784Z,68.39
2022-12-31T21:29:34.052Z,68.39
2022-12-31T21:30:28.751Z,68.29
2022-12-31T21:31:28.794Z,68.39
2022-12-31T21:32:28.735Z,68.39
2022-12-31T21:33:28.713Z,68.39
2022-12-31T21:34:28.720Z,68.49
2022-12-31T21:35:42.623Z,68.58
2022-12-31T21:36:28.677Z,68.49
2022-12-31T21:37:59.198Z,68.58
2022-12-31T21:38:28.646Z,68.20
2022-12-31T21:39:28.637Z,68.39
2022-12-31T21:40:28.642Z,68.58
2022-12-31T21:41:32.915Z,68.90
2022-12-31T21:42:28.590Z,68.13
2022-12-31T21:43:28.580Z,68.80
2022-12-31T21:44:28.577Z,68.04
2022-12-31T21:45:28.594Z,68.13
2022-12-31T21:46:28.645Z,68.33
2022-12-31T21:47:39.707Z,68.23
2022-12-31T21:48:28.518Z,68.52
2022-12-31T21:49:28.544Z,68.33
2022-12-31T21:50:28.511Z,68.33
2022-12-31T21:51:28.507Z,68.52
2022-12-31T21:52:28.475Z,68.52
2022-12-31T21:53:36.248Z,68.23
2022-12-31T21:54:28.465Z,68.33
2022-12-31T21:55:28.469Z,68.33
2022-12-31T21:56:28.406Z,68.52
2022-12-31T21:57:28.396Z,68.42
2022-12-31T21:58:28.675Z,68.42
2022-12-31T21:59:28.371Z,67.56
2022-12-31T22:00:43.997Z,67.94
2022-12-31T22:01:28.419Z,67.94
2022-12-31T22:02:28.481Z,67.94
2022-12-31T22:03:28.564Z,68.04
2022-12-31T22:05:01.781Z,67.94
2022-12-31T22:05:28.277Z,67.94
2022-12-31T22:06:28.276Z,68.04
2022-12-31T22:07:28.250Z,67.94
2022-12-31T22:08:28.249Z,67.76
2022-12-31T22:09:28.245Z,67.85
2022-12-31T22:10:28.210Z,67.66
2022-12-31T22:11:28.216Z,67.85
2022-12-31T22:12:28.242Z,67.66
2022-12-31T22:13:28.177Z,68.29
2022-12-31T22:14:28.155Z,68.23
2022-12-31T22:15:28.147Z,67.76
2022-12-31T22:16:28.387Z,67.63
2022-12-31T22:17:28.120Z,67.72
2022-12-31T22:18:28.115Z,67.63
2022-12-31T22:19:28.100Z,67.63
2022-12-31T22:20:28.816Z,67.53
2022-12-31T22:21:28.067Z,68.58
2022-12-31T22:22:28.045Z,67.63
2022-12-31T22:23:28.038Z,68.01
2022-12-31T22:24:28.019Z,68.49
2022-12-31T22:25:28.009Z,68.29
2022-12-31T22:26:27.999Z,68.29
2022-12-31T22:27:29.903Z,68.20
2022-12-31T22:28:38.229Z,68.10
2022-12-31T22:29:27.967Z,68.20
2022-12-31T22:30:27.979Z,68.20
2022-12-31T22:31:27.978Z,68.10
2022-12-31T22:32:27.925Z,68.20
2022-12-31T22:33:27.894Z,68.39
2022-12-31T22:34:27.881Z,68.29
2022-12-31T22:35:27.868Z,68.20
2022-12-31T22:36:27.853Z,68.29
2022-12-31T22:37:55.494Z,68.10
2022-12-31T22:38:27.847Z,68.55
2022-12-31T22:39:43.242Z,67.97
2022-12-31T22:40:27.797Z,68.01
2022-12-31T22:41:27.817Z,68.29
2022-12-31T22:42:27.773Z,68.07
2022-12-31T22:43:27.758Z,68.45
2022-12-31T22:44:27.745Z,68.07
2022-12-31T22:45:27.734Z,68.35
2022-12-31T22:46:27.823Z,68.26
2022-12-31T22:47:27.711Z,68.16
2022-12-31T22:48:27.735Z,68.35
2022-12-31T22:49:27.670Z,68.26
2022-12-31T22:50:27.661Z,68.20
2022-12-31T22:51:57.332Z,68.26
2022-12-31T22:52:27.639Z,68.39
2022-12-31T22:53:27.627Z,67.88
2022-12-31T22:54:27.602Z,67.69
2022-12-31T22:55:27.654Z,67.88
2022-12-31T22:56:27.574Z,67.88
2022-12-31T22:57:27.580Z,67.97
2022-12-31T22:58:27.546Z,68.35
2022-12-31T22:59:27.542Z,68.35
2022-12-31T23:00:27.574Z,68.26
2022-12-31T23:01:27.568Z,68.16
2022-12-31T23:02:27.513Z,68.16
2022-12-31T23:03:27.517Z,68.07
2022-12-31T23:04:27.526Z,68.16
2022-12-31T23:05:27.466Z,68.07
2022-12-31T23:06:27.436Z,68.07
2022-12-31T23:07:27.450Z,68.45
2022-12-31T23:08:27.421Z,67.97
2022-12-31T23:09:27.394Z,68.26
2022-12-31T23:10:27.384Z,68.45
2022-12-31T23:11:27.411Z,68.45
2022-12-31T23:12:27.353Z,68.55
2022-12-31T23:13:27.351Z,68.55
2022-12-31T23:14:27.334Z,68.55
2022-12-31T23:15:27.311Z,68.35
2022-12-31T23:16:27.396Z,68.35
2022-12-31T23:17:29.733Z,68.35
2022-12-31T23:18:27.272Z,68.35
2022-12-31T23:19:27.273Z,68.32
2022-12-31T23:20:27.237Z,68.23
2022-12-31T23:21:27.223Z,68.41
2022-12-31T23:22:27.251Z,68.13
2022-12-31T23:23:27.199Z,68.23
2022-12-31T23:24:27.186Z,68.41
2022-12-31T23:25:27.171Z,68.90
2022-12-31T23:26:27.207Z,69.27
2022-12-31T23:28:27.137Z,69.18
2022-12-31T23:29:27.134Z,68.90
2022-12-31T23:30:27.100Z,69.09
2022-12-31T23:31:27.101Z,68.99
2022-12-31T23:32:27.087Z,68.90
2022-12-31T23:33:27.059Z,69.21
2022-12-31T23:34:48.076Z,69.12
2022-12-31T23:35:27.039Z,69.12
2022-12-31T23:36:27.016Z,68.84
2022-12-31T23:37:27.012Z,69.02
2022-12-31T23:38:26.990Z,69.02
2022-12-31T23:39:26.972Z,69.02
2022-12-31T23:40:47.965Z,68.84
2022-12-31T23:41:26.945Z,69.02
2022-12-31T23:42:26.974Z,68.93
2022-12-31T23:43:26.929Z,69.21
2022-12-31T23:44:26.906Z,68.93
2022-12-31T23:45:32.636Z,68.93
2022-12-31T23:46:47.910Z,69.37
2022-12-31T23:47:26.864Z,69.37
2022-12-31T23:48:26.859Z,69.09
2022-12-31T23:49:26.831Z,69.56
2022-12-31T23:50:26.817Z,69.66
2022-12-31T23:51:26.797Z,69.37
2022-12-31T23:52:47.794Z,69.56
2022-12-31T23:53:26.782Z,69.37
2022-12-31T23:54:26.766Z,69.47
2022-12-31T23:55:26.745Z,69.76
2022-12-31T23:56:26.800Z,69.85
2022-12-31T23:57:26.727Z,69.85
2022-12-31T23:58:47.720Z,70.14
2022-12-31T23:59:26.699Z,69.95
